sensor_id;sensor_type;location;lat;lon;timestamp;pressure;altitude;pressure_sealevel;temperature;humidity
57827;BME280;43656;57.746;11.780;2023-03-14T00:01:28;97394.81;;;8.57;100.00
57827;BME280;43656;57.746;11.780;2023-03-14T00:03:53;97377.94;;;8.51;100.00
57827;BME280;43656;57.746;11.780;2023-03-14T00:06:19;97410.63;;;8.58;100.00
57827;BME280;43656;57.746;11.780;2023-03-14T00:08:44;97414.13;;;8.59;100.00
57827;BME280;43656;57.746;11.780;2023-03-14T00:11:12;97403.66;;;8.47;100.00
57827;BME280;43656;57.746;11.780;2023-03-14T00:13:39;97417.31;;;8.56;100.00
57827;BME280;43656;57.746;11.780;2023-03-14T00:16:12;97427.78;;;8.62;100.00
57827;BME280;43656;57.746;11.780;2023-03-14T00:18:38;97432.59;;;8.65;100.00
57827;BME280;43656;57.746;11.780;2023-03-14T00:21:04;97426.97;;;8.57;100.00
57827;BME280;43656;57.746;11.780;2023-03-14T00:23:31;97430.19;;;8.59;100.00
57827;BME280;43656;57.746;11.780;2023-03-14T00:26:02;97438.75;;;8.66;100.00
57827;BME280;43656;57.746;11.780;2023-03-14T00:28:27;97424.03;;;8.48;100.00
57827;BME280;43656;57.746;11.780;2023-03-14T00:30:53;97450.56;;;8.55;100.00
57827;BME280;43656;57.746;11.780;2023-03-14T00:33:19;97431.25;;;8.42;100.00
57827;BME280;43656;57.746;11.780;2023-03-14T00:36:02;97450.03;;;8.68;100.00
57827;BME280;43656;57.746;11.780;2023-03-14T00:38:30;97454.84;;;8.56;100.00
57827;BME280;43656;57.746;11.780;2023-03-14T00:40:55;97461.28;;;8.50;100.00
57827;BME280;43656;57.746;11.780;2023-03-14T00:43:21;97459.66;;;8.54;100.00
57827;BME280;43656;57.746;11.780;2023-03-14T00:45:48;97458.81;;;8.33;100.00
57827;BME280;43656;57.746;11.780;2023-03-14T00:48:14;97468.47;;;8.29;100.00
57827;BME280;43656;57.746;11.780;2023-03-14T00:50:39;97466.28;;;8.05;100.00
57827;BME280;43656;57.746;11.780;2023-03-14T00:53:05;97467.34;;;8.09;100.00
57827;BME280;43656;57.746;11.780;2023-03-14T00:55:30;97484.25;;;8.15;100.00
57827;BME280;43656;57.746;11.780;2023-03-14T00:57:56;97488.00;;;8.24;100.00
57827;BME280;43656;57.746;11.780;2023-03-14T01:00:21;97497.34;;;8.16;100.00
57827;BME280;43656;57.746;11.780;2023-03-14T01:02:47;97507.22;;;8.00;100.00
57827;BME280;43656;57.746;11.780;2023-03-14T01:05:12;97501.03;;;7.85;100.00
57827;BME280;43656;57.746;11.780;2023-03-14T01:07:38;97514.97;;;7.97;100.00
57827;BME280;43656;57.746;11.780;2023-03-14T01:10:05;97518.41;;;7.87;100.00
57827;BME280;43656;57.746;11.780;2023-03-14T01:12:30;97515.97;;;7.75;100.00
57827;BME280;43656;57.746;11.780;2023-03-14T01:14:56;97525.56;;;7.71;100.00
57827;BME280;43656;57.746;11.780;2023-03-14T01:17:21;97524.81;;;7.81;100.00
57827;BME280;43656;57.746;11.780;2023-03-14T01:19:47;97514.91;;;7.76;100.00
57827;BME280;43656;57.746;11.780;2023-03-14T01:22:13;97512.75;;;7.68;100.00
57827;BME280;43656;57.746;11.780;2023-03-14T01:24:38;97512.75;;;7.68;100.00
57827;BME280;43656;57.746;11.780;2023-03-14T01:27:04;97511.38;;;7.71;100.00
57827;BME280;43656;57.746;11.780;2023-03-14T01:29:29;97517.81;;;7.70;100.00
57827;BME280;43656;57.746;11.780;2023-03-14T01:31:55;97522.88;;;7.66;100.00
57827;BME280;43656;57.746;11.780;2023-03-14T01:34:20;97531.91;;;7.50;100.00
57827;BME280;43656;57.746;11.780;2023-03-14T01:36:46;97532.53;;;7.67;100.00
57827;BME280;43656;57.746;11.780;2023-03-14T01:39:11;97544.25;;;7.61;100.00
57827;BME280;43656;57.746;11.780;2023-03-14T01:41:38;97533.06;;;7.69;100.00
57827;BME280;43656;57.746;11.780;2023-03-14T01:44:04;97541.91;;;7.70;100.00
57827;BME280;43656;57.746;11.780;2023-03-14T01:46:38;97545.66;;;7.69;100.00
57827;BME280;43656;57.746;11.780;2023-03-14T01:54:44;97546.66;;;7.58;100.00
57827;BME280;43656;57.746;11.780;2023-03-14T01:57:17;97554.47;;;7.69;100.00
57827;BME280;43656;57.746;11.780;2023-03-14T02:00:01;97556.03;;;7.60;100.00
57827;BME280;43656;57.746;11.780;2023-03-14T02:02:30;97553.69;;;7.69;100.00
57827;BME280;43656;57.746;11.780;2023-03-14T02:04:56;97532.75;;;7.56;100.00
57827;BME280;43656;57.746;11.780;2023-03-14T02:07:35;97513.91;;;7.40;100.00
57827;BME280;43656;57.746;11.780;2023-03-14T02:10:03;97550.69;;;7.60;100.00
57827;BME280;43656;57.746;11.780;2023-03-14T02:12:29;97541.75;;;7.39;100.00
57827;BME280;43656;57.746;11.780;2023-03-14T02:14:55;97551.44;;;7.50;100.00
57827;BME280;43656;57.746;11.780;2023-03-14T02:17:22;97552.00;;;7.58;100.00
57827;BME280;43656;57.746;11.780;2023-03-14T02:22:25;97545.84;;;7.52;100.00
57827;BME280;43656;57.746;11.780;2023-03-14T02:25:06;97549.84;;;7.54;100.00
57827;BME280;43656;57.746;11.780;2023-03-14T02:27:34;97532.97;;;7.49;100.00
57827;BME280;43656;57.746;11.780;2023-03-14T02:30:01;97545.03;;;7.57;100.00
57827;BME280;43656;57.746;11.780;2023-03-14T02:32:30;97558.16;;;7.58;100.00
57827;BME280;43656;57.746;11.780;2023-03-14T02:34:58;97556.56;;;7.57;100.00
57827;BME280;43656;57.746;11.780;2023-03-14T02:37:34;97556.78;;;7.50;100.00
57827;BME280;43656;57.746;11.780;2023-03-14T02:40:00;97554.84;;;7.41;100.00
57827;BME280;43656;57.746;11.780;2023-03-14T02:42:25;97548.47;;;7.47;100.00
57827;BME280;43656;57.746;11.780;2023-03-14T02:44:52;97543.97;;;7.52;100.00
57827;BME280;43656;57.746;11.780;2023-03-14T02:47:21;97536.97;;;7.51;100.00
57827;BME280;43656;57.746;11.780;2023-03-14T02:49:47;97475.81;;;7.18;100.00
57827;BME280;43656;57.746;11.780;2023-03-14T02:52:13;97542.09;;;7.58;100.00
57827;BME280;43656;57.746;11.780;2023-03-14T02:54:38;97560.59;;;7.60;100.00
57827;BME280;43656;57.746;11.780;2023-03-14T02:57:04;97554.69;;;7.58;100.00
57827;BME280;43656;57.746;11.780;2023-03-14T02:59:29;97545.84;;;7.52;100.00
57827;BME280;43656;57.746;11.780;2023-03-14T03:01:55;97555.47;;;7.53;100.00
57827;BME280;43656;57.746;11.780;2023-03-14T03:04:20;97554.97;;;7.61;100.00
57827;BME280;43656;57.746;11.780;2023-03-14T03:06:46;97559.56;;;7.66;100.00
57827;BME280;43656;57.746;11.780;2023-03-14T03:09:11;97549.59;;;7.56;100.00
57827;BME280;43656;57.746;11.780;2023-03-14T03:11:36;97558.47;;;7.62;100.00
57827;BME280;43656;57.746;11.780;2023-03-14T03:14:02;97552.28;;;7.61;100.00
57827;BME280;43656;57.746;11.780;2023-03-14T03:16:27;97557.91;;;7.60;100.00
57827;BME280;43656;57.746;11.780;2023-03-14T03:18:53;97554.72;;;7.63;100.00
57827;BME280;43656;57.746;11.780;2023-03-14T03:21:18;97555.25;;;7.65;100.00
57827;BME280;43656;57.746;11.780;2023-03-14T03:23:48;97552.78;;;7.53;100.00
57827;BME280;43656;57.746;11.780;2023-03-14T03:26:13;97543.72;;;7.59;100.00
57827;BME280;43656;57.746;11.780;2023-03-14T03:28:39;97488.66;;;7.21;100.00
57827;BME280;43656;57.746;11.780;2023-03-14T03:31:11;97546.41;;;7.59;100.00
57827;BME280;43656;57.746;11.780;2023-03-14T03:33:37;97550.13;;;7.58;100.00
57827;BME280;43656;57.746;11.780;2023-03-14T03:36:03;97562.41;;;7.54;100.00
57827;BME280;43656;57.746;11.780;2023-03-14T03:38:29;97550.31;;;7.41;100.00
57827;BME280;43656;57.746;11.780;2023-03-14T03:40:54;97560.25;;;7.46;100.00
57827;BME280;43656;57.746;11.780;2023-03-14T03:43:20;97573.13;;;7.54;100.00
57827;BME280;43656;57.746;11.780;2023-03-14T03:45:45;97537.59;;;7.21;100.00
57827;BME280;43656;57.746;11.780;2023-03-14T03:48:10;97575.78;;;7.54;100.00
57827;BME280;43656;57.746;11.780;2023-03-14T03:50:36;97582.44;;;7.46;100.00
57827;BME280;43656;57.746;11.780;2023-03-14T03:53:02;97571.25;;;7.54;100.00
57827;BME280;43656;57.746;11.780;2023-03-14T03:55:27;97566.97;;;7.53;100.00
57827;BME280;43656;57.746;11.780;2023-03-14T03:57:53;97577.16;;;7.57;100.00
57827;BME280;43656;57.746;11.780;2023-03-14T04:00:19;97565.38;;;7.52;100.00
57827;BME280;43656;57.746;11.780;2023-03-14T04:02:44;97565.66;;;7.56;100.00
57827;BME280;43656;57.746;11.780;2023-03-14T04:05:09;97562.69;;;7.52;100.00
57827;BME280;43656;57.746;11.780;2023-03-14T04:07:35;97557.81;;;7.44;100.00
57827;BME280;43656;57.746;11.780;2023-03-14T04:10:00;97571.22;;;7.49;100.00
57827;BME280;43656;57.746;11.780;2023-03-14T04:12:26;97559.44;;;7.45;100.00
57827;BME280;43656;57.746;11.780;2023-03-14T04:14:51;97570.44;;;7.49;100.00
57827;BME280;43656;57.746;11.780;2023-03-14T04:17:17;97568.00;;;7.47;100.00
57827;BME280;43656;57.746;11.780;2023-03-14T04:19:42;97573.84;;;7.44;100.00
57827;BME280;43656;57.746;11.780;2023-03-14T04:22:08;97583.47;;;7.40;100.00
57827;BME280;43656;57.746;11.780;2023-03-14T04:24:34;97587.00;;;7.46;100.00
57827;BME280;43656;57.746;11.780;2023-03-14T04:26:59;97586.47;;;7.49;100.00
57827;BME280;43656;57.746;11.780;2023-03-14T04:29:25;97573.56;;;7.41;100.00
57827;BME280;43656;57.746;11.780;2023-03-14T04:31:50;97587.81;;;7.51;100.00
57827;BME280;43656;57.746;11.780;2023-03-14T04:34:16;97591.03;;;7.48;100.00
57827;BME280;43656;57.746;11.780;2023-03-14T04:36:41;97599.28;;;7.47;100.00
57827;BME280;43656;57.746;11.780;2023-03-14T04:39:06;97607.03;;;7.43;100.00
57827;BME280;43656;57.746;11.780;2023-03-14T04:41:32;97586.34;;;7.28;100.00
57827;BME280;43656;57.746;11.780;2023-03-14T04:43:58;97621.22;;;7.44;100.00
57827;BME280;43656;57.746;11.780;2023-03-14T04:46:24;97628.16;;;7.45;100.00
57827;BME280;43656;57.746;11.780;2023-03-14T04:48:49;97633.22;;;7.41;100.00
57827;BME280;43656;57.746;11.780;2023-03-14T04:51:14;97634.34;;;7.45;100.00
57827;BME280;43656;57.746;11.780;2023-03-14T04:53:40;97619.84;;;7.41;100.00
57827;BME280;43656;57.746;11.780;2023-03-14T04:56:06;97632.13;;;7.37;100.00
57827;BME280;43656;57.746;11.780;2023-03-14T04:58:32;97628.13;;;7.40;100.00
57827;BME280;43656;57.746;11.780;2023-03-14T05:01:04;97633.50;;;7.45;100.00
57827;BME280;43656;57.746;11.780;2023-03-14T05:03:30;97635.59;;;7.38;100.00
57827;BME280;43656;57.746;11.780;2023-03-14T05:05:55;97635.91;;;7.41;100.00
57827;BME280;43656;57.746;11.780;2023-03-14T05:08:22;97633.72;;;7.38;100.00
57827;BME280;43656;57.746;11.780;2023-03-14T05:10:54;97629.16;;;7.34;100.00
57827;BME280;43656;57.746;11.780;2023-03-14T05:13:20;97632.13;;;7.37;100.00
57827;BME280;43656;57.746;11.780;2023-03-14T05:15:46;97612.78;;;7.25;100.00
57827;BME280;43656;57.746;11.780;2023-03-14T05:18:11;97630.00;;;7.39;100.00
57827;BME280;43656;57.746;11.780;2023-03-14T05:20:37;97626.50;;;7.34;100.00
57827;BME280;43656;57.746;11.780;2023-03-14T05:23:02;97628.88;;;7.30;100.00
57827;BME280;43656;57.746;11.780;2023-03-14T05:25:27;97632.63;;;7.29;100.00
57827;BME280;43656;57.746;11.780;2023-03-14T05:27:54;97636.88;;;7.30;100.00
57827;BME280;43656;57.746;11.780;2023-03-14T05:30:20;97638.72;;;7.24;100.00
57827;BME280;43656;57.746;11.780;2023-03-14T05:32:47;97635.00;;;7.25;100.00
57827;BME280;43656;57.746;11.780;2023-03-14T05:35:12;97612.41;;;7.11;100.00
57827;BME280;43656;57.746;11.780;2023-03-14T05:37:38;97632.56;;;7.24;100.00
57827;BME280;43656;57.746;11.780;2023-03-14T05:40:05;97629.13;;;7.28;100.00
57827;BME280;43656;57.746;11.780;2023-03-14T05:42:32;97635.28;;;7.29;100.00
57827;BME280;43656;57.746;11.780;2023-03-14T05:44:57;97633.88;;;7.21;100.00
57827;BME280;43656;57.746;11.780;2023-03-14T05:47:22;97625.03;;;7.16;100.00
57827;BME280;43656;57.746;11.780;2023-03-14T05:49:48;97655.53;;;7.20;100.00
57827;BME280;43656;57.746;11.780;2023-03-14T05:52:14;97650.75;;;7.22;100.00
57827;BME280;43656;57.746;11.780;2023-03-14T05:54:39;97647.28;;;7.26;100.00
57827;BME280;43656;57.746;11.780;2023-03-14T05:57:05;97650.22;;;7.25;100.00
57827;BME280;43656;57.746;11.780;2023-03-14T05:59:31;97655.06;;;7.28;100.00
57827;BME280;43656;57.746;11.780;2023-03-14T06:01:56;97653.94;;;7.19;100.00
57827;BME280;43656;57.746;11.780;2023-03-14T06:04:21;97655.03;;;7.23;100.00
57827;BME280;43656;57.746;11.780;2023-03-14T06:06:47;97653.94;;;7.24;100.00
57827;BME280;43656;57.746;11.780;2023-03-14T06:09:13;97651.56;;;7.22;100.00
57827;BME280;43656;57.746;11.780;2023-03-14T06:11:38;97649.69;;;7.23;100.00
57827;BME280;43656;57.746;11.780;2023-03-14T06:14:03;97630.06;;;7.12;100.00
57827;BME280;43656;57.746;11.780;2023-03-14T06:16:29;97655.25;;;7.21;100.00
57827;BME280;43656;57.746;11.780;2023-03-14T06:18:54;97656.69;;;7.29;100.00
57827;BME280;43656;57.746;11.780;2023-03-14T06:21:20;97658.78;;;7.27;100.00
57827;BME280;43656;57.746;11.780;2023-03-14T06:23:45;97662.31;;;7.33;100.00
57827;BME280;43656;57.746;11.780;2023-03-14T06:26:11;97669.00;;;7.30;100.00
57827;BME280;43656;57.746;11.780;2023-03-14T06:28:37;97681.59;;;7.35;100.00
57827;BME280;43656;57.746;11.780;2023-03-14T06:31:03;97676.22;;;7.29;100.00
57827;BME280;43656;57.746;11.780;2023-03-14T06:33:28;97681.13;;;7.43;100.00
57827;BME280;43656;57.746;11.780;2023-03-14T06:35:54;97686.22;;;7.44;100.00
57827;BME280;43656;57.746;11.780;2023-03-14T06:38:19;97682.19;;;7.42;100.00
57827;BME280;43656;57.746;11.780;2023-03-14T06:40:45;97687.28;;;7.43;100.00
57827;BME280;43656;57.746;11.780;2023-03-14T06:43:10;97692.38;;;7.45;100.00
57827;BME280;43656;57.746;11.780;2023-03-14T06:45:36;97705.75;;;7.45;100.00
57827;BME280;43656;57.746;11.780;2023-03-14T06:48:01;97684.69;;;7.21;100.00
57827;BME280;43656;57.746;11.780;2023-03-14T06:50:27;97712.13;;;7.39;100.00
57827;BME280;43656;57.746;11.780;2023-03-14T06:52:52;97705.41;;;7.36;100.00
57827;BME280;43656;57.746;11.780;2023-03-14T06:55:18;97716.13;;;7.36;100.00
57827;BME280;43656;57.746;11.780;2023-03-14T06:57:43;97724.16;;;7.41;100.00
57827;BME280;43656;57.746;11.780;2023-03-14T07:00:10;97720.47;;;7.42;100.00
57827;BME280;43656;57.746;11.780;2023-03-14T07:02:36;97719.13;;;7.45;100.00
57827;BME280;43656;57.746;11.780;2023-03-14T07:05:01;97729.06;;;7.49;100.00
57827;BME280;43656;57.746;11.780;2023-03-14T07:07:27;97698.97;;;7.32;100.00
57827;BME280;43656;57.746;11.780;2023-03-14T07:09:53;97726.19;;;7.56;100.00
57827;BME280;43656;57.746;11.780;2023-03-14T07:12:18;97731.19;;;7.47;100.00
57827;BME280;43656;57.746;11.780;2023-03-14T07:14:44;97729.59;;;7.46;100.00
57827;BME280;43656;57.746;11.780;2023-03-14T07:17:09;97749.41;;;7.50;100.00
57827;BME280;43656;57.746;11.780;2023-03-14T07:19:35;97758.44;;;7.44;100.00
57827;BME280;43656;57.746;11.780;2023-03-14T07:22:00;97746.72;;;7.50;100.00
57827;BME280;43656;57.746;11.780;2023-03-14T07:24:26;97755.91;;;7.60;100.00
57827;BME280;43656;57.746;11.780;2023-03-14T07:26:52;97759.75;;;7.69;100.00
57827;BME280;43656;57.746;11.780;2023-03-14T07:29:17;97752.72;;;7.63;100.00
57827;BME280;43656;57.746;11.780;2023-03-14T07:31:43;97750.09;;;7.68;100.00
57827;BME280;43656;57.746;11.780;2023-03-14T07:34:08;97753.09;;;7.76;100.00
57827;BME280;43656;57.746;11.780;2023-03-14T07:36:34;97752.53;;;7.69;100.00
57827;BME280;43656;57.746;11.780;2023-03-14T07:38:59;97754.97;;;7.76;100.00
57827;BME280;43656;57.746;11.780;2023-03-14T07:41:25;97740.53;;;7.77;100.00
57827;BME280;43656;57.746;11.780;2023-03-14T07:43:50;97760.34;;;7.76;100.00
57827;BME280;43656;57.746;11.780;2023-03-14T07:46:16;97759.84;;;7.84;100.00
57827;BME280;43656;57.746;11.780;2023-03-14T07:48:42;97766.91;;;7.95;100.00
57827;BME280;43656;57.746;11.780;2023-03-14T07:51:07;97766.34;;;7.93;100.00
57827;BME280;43656;57.746;11.780;2023-03-14T07:53:33;97757.81;;;7.96;100.00
57827;BME280;43656;57.746;11.780;2023-03-14T07:55:58;97773.94;;;8.07;100.00
57827;BME280;43656;57.746;11.780;2023-03-14T07:58:24;97775.44;;;8.24;100.00
57827;BME280;43656;57.746;11.780;2023-03-14T08:00:50;97766.19;;;8.10;100.00
57827;BME280;43656;57.746;11.780;2023-03-14T08:03:16;97759.25;;;8.14;100.00
57827;BME280;43656;57.746;11.780;2023-03-14T08:05:42;97762.09;;;7.97;100.00
57827;BME280;43656;57.746;11.780;2023-03-14T08:08:08;97779.16;;;8.23;100.00
57827;BME280;43656;57.746;11.780;2023-03-14T08:10:34;97790.97;;;8.28;100.00
57827;BME280;43656;57.746;11.780;2023-03-14T08:13:00;97786.81;;;8.10;100.00
57827;BME280;43656;57.746;11.780;2023-03-14T08:15:29;97789.72;;;8.40;100.00
57827;BME280;43656;57.746;11.780;2023-03-14T08:17:55;97785.91;;;8.31;100.00
57827;BME280;43656;57.746;11.780;2023-03-14T08:20:24;97785.94;;;8.36;100.00
57827;BME280;43656;57.746;11.780;2023-03-14T08:22:50;97791.47;;;8.62;99.23
57827;BME280;43656;57.746;11.780;2023-03-14T08:25:16;97792.75;;;8.54;98.97
57827;BME280;43656;57.746;11.780;2023-03-14T08:27:42;97793.88;;;8.63;98.37
57827;BME280;43656;57.746;11.780;2023-03-14T08:30:09;97797.59;;;8.57;98.50
57827;BME280;43656;57.746;11.780;2023-03-14T08:32:35;97793.97;;;8.84;96.71
57827;BME280;43656;57.746;11.780;2023-03-14T08:35:01;97795.88;;;8.88;95.82
57827;BME280;43656;57.746;11.780;2023-03-14T08:37:26;97796.69;;;8.89;96.26
57827;BME280;43656;57.746;11.780;2023-03-14T08:39:52;97812.03;;;9.04;95.42
57827;BME280;43656;57.746;11.780;2023-03-14T08:42:18;97790.28;;;9.00;94.24
57827;BME280;43656;57.746;11.780;2023-03-14T08:44:44;97830.00;;;9.03;93.55
57827;BME280;43656;57.746;11.780;2023-03-14T08:47:09;97833.19;;;9.00;92.71
57827;BME280;43656;57.746;11.780;2023-03-14T08:49:35;97833.94;;;8.85;92.30
57827;BME280;43656;57.746;11.780;2023-03-14T08:52:04;97832.53;;;8.73;90.92
57827;BME280;43656;57.746;11.780;2023-03-14T08:54:30;97825.94;;;8.43;89.93
57827;BME280;43656;57.746;11.780;2023-03-14T08:56:56;97825.31;;;8.36;88.39
57827;BME280;43656;57.746;11.780;2023-03-14T08:59:22;97845.88;;;8.25;86.93
57827;BME280;43656;57.746;11.780;2023-03-14T09:01:47;97845.94;;;7.98;86.35
57827;BME280;43656;57.746;11.780;2023-03-14T09:04:13;97827.25;;;7.76;85.62
57827;BME280;43656;57.746;11.780;2023-03-14T09:06:38;97855.31;;;7.73;84.89
57827;BME280;43656;57.746;11.780;2023-03-14T09:09:04;97849.31;;;7.88;83.13
57827;BME280;43656;57.746;11.780;2023-03-14T09:11:30;97844.34;;;8.02;82.66
57827;BME280;43656;57.746;11.780;2023-03-14T09:13:56;97850.41;;;7.92;82.09
57827;BME280;43656;57.746;11.780;2023-03-14T09:16:23;97852.84;;;7.94;82.42
57827;BME280;43656;57.746;11.780;2023-03-14T09:18:48;97848.84;;;7.96;81.98
57827;BME280;43656;57.746;11.780;2023-03-14T09:21:14;97853.84;;;8.15;81.35
57827;BME280;43656;57.746;11.780;2023-03-14T09:23:39;97853.13;;;7.97;80.83
57827;BME280;43656;57.746;11.780;2023-03-14T09:26:05;97866.94;;;8.11;80.30
57827;BME280;43656;57.746;11.780;2023-03-14T09:28:31;97867.75;;;8.17;79.68
57827;BME280;43656;57.746;11.780;2023-03-14T09:30:57;97877.94;;;8.15;80.28
57827;BME280;43656;57.746;11.780;2023-03-14T09:33:23;97887.94;;;8.24;79.52
57827;BME280;43656;57.746;11.780;2023-03-14T09:35:49;97890.94;;;8.33;79.11
57827;BME280;43656;57.746;11.780;2023-03-14T09:38:15;97887.28;;;8.12;79.13
57827;BME280;43656;57.746;11.780;2023-03-14T09:40:41;97897.97;;;8.39;78.44
57827;BME280;43656;57.746;11.780;2023-03-14T09:43:11;97906.72;;;8.30;78.59
57827;BME280;43656;57.746;11.780;2023-03-14T09:45:39;97903.69;;;8.21;78.32
57827;BME280;43656;57.746;11.780;2023-03-14T09:48:06;97893.66;;;8.06;77.36
57827;BME280;43656;57.746;11.780;2023-03-14T09:50:44;97922.09;;;7.85;75.77
57827;BME280;43656;57.746;11.780;2023-03-14T09:53:17;97918.53;;;8.02;75.67
57827;BME280;43656;57.746;11.780;2023-03-14T09:55:45;97923.00;;;7.96;75.94
57827;BME280;43656;57.746;11.780;2023-03-14T09:58:13;97935.63;;;8.00;76.10
57827;BME280;43656;57.746;11.780;2023-03-14T10:00:41;97939.78;;;7.86;76.43
57827;BME280;43656;57.746;11.780;2023-03-14T10:05:39;97959.38;;;7.92;76.34
57827;BME280;43656;57.746;11.780;2023-03-14T10:08:05;97953.78;;;7.71;76.84
57827;BME280;43656;57.746;11.780;2023-03-14T10:10:31;97954.25;;;7.63;77.17
57827;BME280;43656;57.746;11.780;2023-03-14T10:15:35;97962.78;;;8.09;76.65
57827;BME280;43656;57.746;11.780;2023-03-14T10:18:03;97958.88;;;7.95;76.03
57827;BME280;43656;57.746;11.780;2023-03-14T10:20:36;97971.50;;;7.99;75.77
57827;BME280;43656;57.746;11.780;2023-03-14T10:23:06;97962.22;;;8.07;75.66
57827;BME280;43656;57.746;11.780;2023-03-14T10:26:00;97977.88;;;7.71;75.37
57827;BME280;43656;57.746;11.780;2023-03-14T10:28:26;97975.94;;;7.89;75.06
57827;BME280;43656;57.746;11.780;2023-03-14T10:30:53;97984.72;;;7.84;75.39
57827;BME280;43656;57.746;11.780;2023-03-14T10:33:22;97995.53;;;7.94;74.29
57827;BME280;43656;57.746;11.780;2023-03-14T10:35:57;98002.34;;;8.02;74.30
57827;BME280;43656;57.746;11.780;2023-03-14T10:38:26;98001.63;;;8.12;73.88
57827;BME280;43656;57.746;11.780;2023-03-14T10:40:53;98017.34;;;8.30;73.41
57827;BME280;43656;57.746;11.780;2023-03-14T10:43:23;98020.59;;;8.32;73.40
57827;BME280;43656;57.746;11.780;2023-03-14T10:45:56;98025.00;;;8.70;73.95
57827;BME280;43656;57.746;11.780;2023-03-14T10:48:29;98022.88;;;8.73;76.16
57827;BME280;43656;57.746;11.780;2023-03-14T10:50:57;98030.72;;;8.52;78.14
57827;BME280;43656;57.746;11.780;2023-03-14T10:53:23;98040.59;;;8.46;78.94
57827;BME280;43656;57.746;11.780;2023-03-14T10:55:48;98046.81;;;8.30;79.85
57827;BME280;43656;57.746;11.780;2023-03-14T10:58:24;98047.81;;;8.24;80.62
57827;BME280;43656;57.746;11.780;2023-03-14T11:03:22;98048.78;;;8.62;80.74
57827;BME280;43656;57.746;11.780;2023-03-14T11:06:28;98051.56;;;8.45;81.41
57827;BME280;43656;57.746;11.780;2023-03-14T11:08:59;98053.94;;;8.68;80.86
57827;BME280;43656;57.746;11.780;2023-03-14T11:11:31;98057.38;;;8.64;81.50
57827;BME280;43656;57.746;11.780;2023-03-14T11:16:56;98078.03;;;7.97;83.43
57827;BME280;43656;57.746;11.780;2023-03-14T11:19:49;98086.66;;;7.61;84.74
57827;BME280;43656;57.746;11.780;2023-03-14T11:25:12;98103.72;;;7.04;86.04
57827;BME280;43656;57.746;11.780;2023-03-14T11:27:47;98088.03;;;6.62;84.58
57827;BME280;43656;57.746;11.780;2023-03-14T11:30:28;98118.78;;;6.76;83.38
57827;BME280;43656;57.746;11.780;2023-03-14T11:33:23;98129.75;;;6.63;83.07
57827;BME280;43656;57.746;11.780;2023-03-14T11:36:07;98131.53;;;6.57;83.68
57827;BME280;43656;57.746;11.780;2023-03-14T11:38:46;98129.72;;;6.46;85.10
57827;BME280;43656;57.746;11.780;2023-03-14T11:41:31;98143.75;;;6.42;86.18
57827;BME280;43656;57.746;11.780;2023-03-14T11:43:59;98142.66;;;6.26;86.57
57827;BME280;43656;57.746;11.780;2023-03-14T11:46:50;98143.91;;;6.35;86.41
57827;BME280;43656;57.746;11.780;2023-03-14T11:49:42;98156.44;;;6.46;85.80
57827;BME280;43656;57.746;11.780;2023-03-14T11:55:31;98182.72;;;6.26;85.85
57827;BME280;43656;57.746;11.780;2023-03-14T11:58:01;98182.84;;;6.07;87.01
57827;BME280;43656;57.746;11.780;2023-03-14T12:00:29;98168.94;;;5.70;88.21
57827;BME280;43656;57.746;11.780;2023-03-14T12:11:42;98196.19;;;5.84;91.76
57827;BME280;43656;57.746;11.780;2023-03-14T12:17:06;98198.50;;;5.69;93.09
57827;BME280;43656;57.746;11.780;2023-03-14T12:19:38;98211.28;;;5.90;92.86
57827;BME280;43656;57.746;11.780;2023-03-14T12:22:21;98217.66;;;5.89;93.03
57827;BME280;43656;57.746;11.780;2023-03-14T12:24:56;98208.72;;;5.83;92.62
57827;BME280;43656;57.746;11.780;2023-03-14T12:28:11;98226.94;;;5.86;92.65
57827;BME280;43656;57.746;11.780;2023-03-14T12:30:39;98222.88;;;5.84;92.55
57827;BME280;43656;57.746;11.780;2023-03-14T12:35:50;98245.63;;;6.22;91.38
57827;BME280;43656;57.746;11.780;2023-03-14T12:43:28;98248.28;;;6.45;89.47
57827;BME280;43656;57.746;11.780;2023-03-14T12:48:39;98265.69;;;6.48;88.33
57827;BME280;43656;57.746;11.780;2023-03-14T12:51:16;98270.94;;;6.43;87.65
57827;BME280;43656;57.746;11.780;2023-03-14T12:53:54;98271.88;;;6.37;87.47
57827;BME280;43656;57.746;11.780;2023-03-14T12:56:40;98286.97;;;6.31;87.62
57827;BME280;43656;57.746;11.780;2023-03-14T13:05:12;98294.75;;;5.55;85.23
57827;BME280;43656;57.746;11.780;2023-03-14T13:10:29;98314.47;;;5.54;85.16
57827;BME280;43656;57.746;11.780;2023-03-14T13:15:31;98329.03;;;5.70;83.97
57827;BME280;43656;57.746;11.780;2023-03-14T13:18:34;98330.31;;;5.49;84.10
57827;BME280;43656;57.746;11.780;2023-03-14T13:23:33;98339.66;;;6.00;84.13
57827;BME280;43656;57.746;11.780;2023-03-14T13:25:59;98322.25;;;5.98;83.43
57827;BME280;43656;57.746;11.780;2023-03-14T13:28:26;98338.31;;;5.79;80.92
57827;BME280;43656;57.746;11.780;2023-03-14T13:30:58;98350.13;;;5.72;78.69
57827;BME280;43656;57.746;11.780;2023-03-14T13:33:25;98356.06;;;5.85;77.46
57827;BME280;43656;57.746;11.780;2023-03-14T13:36:02;98374.50;;;5.75;76.38
57827;BME280;43656;57.746;11.780;2023-03-14T13:38:31;98378.94;;;5.51;78.63
57827;BME280;43656;57.746;11.780;2023-03-14T13:40:59;98376.09;;;5.16;80.13
57827;BME280;43656;57.746;11.780;2023-03-14T13:43:30;98380.25;;;5.12;81.31
57827;BME280;43656;57.746;11.780;2023-03-14T13:46:15;98405.06;;;5.12;80.10
57827;BME280;43656;57.746;11.780;2023-03-14T13:48:48;98411.13;;;5.19;81.08
57827;BME280;43656;57.746;11.780;2023-03-14T13:51:17;98411.22;;;4.94;80.84
57827;BME280;43656;57.746;11.780;2023-03-14T13:56:14;98431.28;;;4.97;81.48
57827;BME280;43656;57.746;11.780;2023-03-14T13:58:40;98430.50;;;4.90;82.04
57827;BME280;43656;57.746;11.780;2023-03-14T14:03:39;98438.97;;;4.87;81.64